Time;durP1;ratioP1;P1;durP2;ratioP2;P2;SDS_P1;SDS_P2;PMS_P1;PMS_P2;Temp;Humidity;BMP_temperature;BMP_pressure;BME280_temperature;BME280_humidity;BME280_pressure;Samples;Min_cycle;Max_cycle;Signal;HPM_P1;HPM_P2
2022/02/27 00:00:45;;;;;;;44.83;27.50;;;4.00;99.90;;;;;;2059246;28;20121;-72
2022/02/27 00:01:45;;;;;;;41.95;26.10;;;3.90;99.90;;;;;;2066676;28;20055;-73
2022/02/27 00:02:46;;;;;;;43.45;26.63;;;4.00;99.90;;;;;;2066543;28;20034;-75
2022/02/27 00:03:48;;;;;;;40.25;25.80;;;4.00;99.90;;;;;;2065510;28;20035;-74
2022/02/27 00:04:48;;;;;;;39.80;24.65;;;4.00;99.90;;;;;;2063955;28;20018;-74
2022/02/27 00:05:49;;;;;;;38.53;24.88;;;4.00;99.90;;;;;;2064290;28;20026;-74
2022/02/27 00:06:49;;;;;;;41.05;24.77;;;4.00;99.90;;;;;;2064195;28;20110;-73
2022/02/27 00:07:50;;;;;;;39.92;24.77;;;4.00;99.90;;;;;;2063944;28;20494;-73
2022/02/27 00:08:51;;;;;;;36.75;23.30;;;4.00;99.90;;;;;;2064032;28;20101;-75
2022/02/27 00:09:52;;;;;;;38.78;23.95;;;4.00;99.90;;;;;;2063808;28;20073;-73
2022/02/27 00:10:52;;;;;;;39.17;25.13;;;4.00;99.90;;;;;;2064275;28;20053;-72
2022/02/27 00:11:53;;;;;;;38.45;24.58;;;4.00;99.90;;;;;;2064621;28;20018;-72
2022/02/27 00:12:54;;;;;;;39.08;24.92;;;4.00;99.90;;;;;;2063704;28;20525;-73
2022/02/27 00:13:54;;;;;;;41.08;26.75;;;4.00;99.90;;;;;;2055479;28;20030;-73
2022/02/27 00:14:55;;;;;;;47.30;27.85;;;4.00;99.90;;;;;;2063397;28;20050;-75
2022/02/27 00:15:55;;;;;;;44.05;29.05;;;4.00;99.90;;;;;;2064386;28;20065;-74
2022/02/27 00:16:56;;;;;;;49.00;30.67;;;4.00;99.90;;;;;;2064488;28;20113;-74
2022/02/27 00:17:56;;;;;;;51.13;30.67;;;4.00;99.90;;;;;;2063919;28;20026;-74
2022/02/27 00:18:57;;;;;;;49.00;31.45;;;3.90;99.90;;;;;;2063666;28;20038;-74
2022/02/27 00:19:57;;;;;;;53.30;32.85;;;3.90;99.90;;;;;;2063791;28;20065;-72
2022/02/27 00:20:58;;;;;;;54.58;32.13;;;3.90;99.90;;;;;;2064140;28;20053;-74
2022/02/27 00:21:59;;;;;;;51.28;31.83;;;3.90;99.90;;;;;;2071942;28;20286;-74
2022/02/27 00:22:59;;;;;;;49.30;30.65;;;3.90;99.90;;;;;;2071829;28;20092;-73
2022/02/27 00:24:00;;;;;;;52.63;31.80;;;3.80;99.90;;;;;;2064343;28;20046;-75
2022/02/27 00:25:00;;;;;;;50.47;31.80;;;3.80;99.90;;;;;;2064377;28;20065;-75
2022/02/27 00:26:01;;;;;;;49.63;31.20;;;3.90;99.90;;;;;;2064614;28;20077;-74
2022/02/27 00:27:02;;;;;;;49.55;31.27;;;3.80;99.90;;;;;;2064458;28;20434;-74
2022/02/27 00:28:03;;;;;;;49.92;31.30;;;3.80;99.90;;;;;;2063676;28;20034;-72
2022/02/27 00:29:04;;;;;;;53.58;30.83;;;3.80;99.90;;;;;;2063961;28;20399;-74
2022/02/27 00:30:07;;;;;;;50.25;30.20;;;3.80;99.90;;;;;;2064815;28;20112;-74
2022/02/27 00:31:11;;;;;;;46.30;30.20;;;3.80;99.90;;;;;;2064743;28;20022;-74
2022/02/27 00:32:14;;;;;;;48.78;29.52;;;3.80;99.90;;;;;;2055695;28;20023;-74
2022/02/27 00:33:15;;;;;;;50.78;31.02;;;3.80;99.90;;;;;;2056100;28;20070;-75
2022/02/27 00:34:15;;;;;;;51.45;30.50;;;3.80;99.90;;;;;;2063916;28;20034;-74
2022/02/27 00:35:16;;;;;;;47.45;29.83;;;3.80;99.90;;;;;;2064398;28;20026;-74
2022/02/27 00:36:17;;;;;;;46.40;30.15;;;3.80;99.90;;;;;;2068532;28;20088;-74
2022/02/27 00:37:17;;;;;;;49.38;29.85;;;3.80;99.90;;;;;;2072921;28;20112;-74
2022/02/27 00:38:18;;;;;;;46.95;29.60;;;3.80;99.90;;;;;;2072242;28;20489;-75
2022/02/27 00:39:19;;;;;;;49.45;29.00;;;3.80;99.90;;;;;;2071938;28;20026;-73
2022/02/27 00:40:19;;;;;;;48.78;29.95;;;3.80;99.90;;;;;;2072179;28;20084;-72
2022/02/27 00:41:21;;;;;;;47.95;30.02;;;3.80;99.90;;;;;;2072279;28;20472;-74
2022/02/27 00:42:21;;;;;;;53.15;30.75;;;3.80;99.90;;;;;;2064288;28;20066;-73
2022/02/27 00:43:23;;;;;;;54.78;31.15;;;3.80;99.90;;;;;;2072477;28;20481;-74
2022/02/27 00:44:25;;;;;;;52.90;30.50;;;3.80;99.90;;;;;;2073497;28;20041;-75
2022/02/27 00:45:25;;;;;;;50.28;30.25;;;3.80;99.90;;;;;;2081718;28;20033;-73
2022/02/27 00:46:26;;;;;;;52.00;29.92;;;3.80;99.90;;;;;;2073432;28;20104;-72
2022/02/27 00:47:27;;;;;;;48.00;29.52;;;3.70;99.90;;;;;;2073459;28;20018;-74
2022/02/27 00:48:27;;;;;;;46.25;28.75;;;3.70;99.90;;;;;;2073450;28;20033;-74
2022/02/27 00:49:28;;;;;;;51.45;29.83;;;3.70;99.90;;;;;;2073179;28;20029;-74
2022/02/27 00:50:29;;;;;;;52.90;30.20;;;3.70;99.90;;;;;;2065223;28;20030;-73
2022/02/27 00:51:32;;;;;;;50.38;29.20;;;3.70;99.90;;;;;;2073436;28;20404;-73
2022/02/27 00:52:36;;;;;;;46.65;28.90;;;3.70;99.90;;;;;;2065269;28;20805;-74
2022/02/27 00:53:36;;;;;;;47.53;28.75;;;3.60;99.90;;;;;;2065359;28;20034;-75
2022/02/27 00:54:37;;;;;;;46.00;27.75;;;3.60;99.90;;;;;;2072774;28;20088;-75
2022/02/27 00:55:37;;;;;;;51.40;28.30;;;3.60;99.90;;;;;;2073446;28;20026;-73
2022/02/27 00:56:38;;;;;;;45.83;28.30;;;3.60;99.90;;;;;;2073019;28;20045;-74
2022/02/27 00:57:39;;;;;;;50.25;28.35;;;3.60;99.90;;;;;;2072876;28;20500;-73
2022/02/27 00:58:41;;;;;;;47.10;27.80;;;3.60;99.90;;;;;;2065502;28;20033;-77
2022/02/27 00:59:44;;;;;;;46.95;28.85;;;3.60;99.90;;;;;;2073592;28;20421;-73
2022/02/27 01:00:44;;;;;;;47.45;28.42;;;3.60;99.90;;;;;;2074176;28;20778;-74
2022/02/27 01:01:46;;;;;;;45.72;28.85;;;3.60;99.90;;;;;;2073727;28;20076;-73
2022/02/27 01:02:46;;;;;;;48.78;30.20;;;3.60;99.90;;;;;;2073947;28;20038;-75
2022/02/27 01:03:47;;;;;;;47.85;30.13;;;3.60;99.90;;;;;;2065317;28;20030;-74
2022/02/27 01:04:48;;;;;;;49.35;30.13;;;3.50;99.90;;;;;;2064913;28;20081;-74
2022/02/27 01:05:49;;;;;;;46.00;29.95;;;3.60;99.90;;;;;;2073205;28;20080;-74
2022/02/27 01:06:50;;;;;;;53.03;30.73;;;3.50;99.90;;;;;;2074011;28;20087;-74
2022/02/27 01:07:51;;;;;;;45.35;29.90;;;3.50;99.90;;;;;;2073483;28;20113;-72
2022/02/27 01:08:53;;;;;;;49.47;30.88;;;3.50;99.90;;;;;;2074710;28;20374;-74
2022/02/27 01:09:53;;;;;;;51.47;31.27;;;3.50;99.90;;;;;;2081607;28;20064;-74
2022/02/27 01:10:54;;;;;;;46.95;31.15;;;3.50;99.90;;;;;;2081399;28;20027;-73
2022/02/27 01:11:55;;;;;;;52.55;31.83;;;3.50;99.90;;;;;;2073869;28;20025;-74
2022/02/27 01:12:55;;;;;;;51.38;32.08;;;3.50;99.90;;;;;;2073295;28;20113;-74
2022/02/27 01:13:56;;;;;;;50.47;31.58;;;3.50;99.90;;;;;;2073277;28;20068;-73
2022/02/27 01:14:57;;;;;;;47.90;31.00;;;3.50;99.90;;;;;;2073768;28;20034;-74
2022/02/27 01:15:58;;;;;;;49.03;30.92;;;3.50;99.90;;;;;;2080887;28;20164;-73
2022/02/27 01:17:02;;;;;;;47.78;30.10;;;3.60;99.90;;;;;;2081227;28;20401;-72
2022/02/27 01:18:03;;;;;;;47.70;30.65;;;3.50;99.90;;;;;;2072601;28;20046;-72
2022/02/27 01:19:05;;;;;;;44.80;29.00;;;3.50;99.90;;;;;;2065549;28;20058;-72
2022/02/27 01:20:09;;;;;;;47.22;29.50;;;3.50;99.90;;;;;;2066769;28;20038;-72
2022/02/27 01:21:10;;;;;;;47.38;28.65;;;3.50;99.90;;;;;;2080930;28;20029;-73
2022/02/27 01:22:13;;;;;;;49.35;29.75;;;3.50;99.90;;;;;;2065258;28;20557;-72
2022/02/27 01:23:19;;;;;;;49.80;30.25;;;3.60;99.90;;;;;;2067638;28;20109;-73
2022/02/27 01:24:37;;;;;;;47.25;29.52;;;3.50;99.90;;;;;;2068114;28;20034;-73
2022/02/27 01:25:38;;;;;;;49.70;28.15;;;3.50;99.90;;;;;;2067354;28;20031;-75
2022/02/27 01:26:39;;;;;;;46.50;28.30;;;3.50;99.90;;;;;;2066270;28;20085;-73
2022/02/27 01:27:40;;;;;;;48.03;27.65;;;3.60;99.90;;;;;;2066600;28;20073;-72
2022/02/27 01:28:49;;;;;;;46.10;26.67;;;3.60;99.90;;;;;;2073669;28;20033;-73
2022/02/27 01:29:50;;;;;;;42.73;26.63;;;3.60;99.90;;;;;;2059383;28;20027;-74
2022/02/27 01:31:04;;;;;;;40.60;25.98;;;3.60;99.90;;;;;;2050970;28;20410;-72
2022/02/27 01:32:06;;;;;;;42.13;25.80;;;3.60;99.90;;;;;;2067622;28;20057;-71
2022/02/27 01:33:07;;;;;;;42.72;25.95;;;3.60;99.90;;;;;;2058995;28;20065;-73
2022/02/27 01:34:08;;;;;;;38.95;24.60;;;3.60;99.90;;;;;;2057763;28;20026;-73
2022/02/27 01:35:09;;;;;;;41.75;25.35;;;3.60;99.90;;;;;;2065631;28;20027;-72
2022/02/27 01:36:09;;;;;;;38.95;25.45;;;3.60;99.90;;;;;;2064990;28;20034;-72
2022/02/27 01:37:10;;;;;;;42.90;25.50;;;3.60;99.90;;;;;;2073269;28;20065;-75
2022/02/27 01:38:11;;;;;;;37.25;24.77;;;3.60;99.90;;;;;;2064743;28;20034;-73
2022/02/27 01:39:11;;;;;;;41.03;24.77;;;3.60;99.90;;;;;;2065060;28;20058;-74
2022/02/27 01:40:12;;;;;;;40.25;25.35;;;3.60;99.90;;;;;;2065563;28;20044;-73
2022/02/27 01:41:13;;;;;;;39.42;24.80;;;3.60;99.90;;;;;;2057206;28;20041;-72
2022/02/27 01:42:15;;;;;;;41.47;25.25;;;3.60;99.90;;;;;;2057132;28;20031;-71
2022/02/27 01:43:16;;;;;;;38.95;24.55;;;3.60;99.90;;;;;;2064975;28;20042;-71
2022/02/27 01:44:17;;;;;;;42.95;25.17;;;3.60;99.90;;;;;;2072288;28;20034;-74
2022/02/27 01:45:19;;;;;;;38.40;24.77;;;3.60;99.90;;;;;;2064802;28;20015;-72
2022/02/27 01:46:20;;;;;;;38.30;24.65;;;3.60;99.90;;;;;;2064877;28;20053;-72
2022/02/27 01:47:22;;;;;;;44.72;26.17;;;3.60;99.90;;;;;;2064931;28;20031;-72
2022/02/27 01:48:25;;;;;;;41.67;25.83;;;3.60;99.90;;;;;;2056628;28;20494;-73
2022/02/27 01:49:27;;;;;;;42.15;25.15;;;3.60;99.90;;;;;;2057169;28;20041;-75
2022/02/27 01:50:28;;;;;;;41.80;26.40;;;3.60;99.90;;;;;;2057084;28;20786;-72
2022/02/27 01:51:29;;;;;;;41.03;25.77;;;3.60;99.90;;;;;;2064961;28;20038;-74
2022/02/27 01:52:30;;;;;;;40.35;25.98;;;3.60;99.90;;;;;;2065465;28;20477;-73
2022/02/27 01:53:31;;;;;;;44.33;26.48;;;3.60;99.90;;;;;;2065273;28;20041;-75
2022/02/27 01:54:32;;;;;;;40.83;26.45;;;3.60;99.90;;;;;;2056710;28;20030;-73
2022/02/27 01:55:33;;;;;;;45.97;27.60;;;3.60;99.90;;;;;;2068878;28;20045;-72
2022/02/27 01:56:33;;;;;;;44.55;27.60;;;3.60;99.90;;;;;;2073227;28;20054;-74
2022/02/27 01:57:34;;;;;;;41.70;27.02;;;3.60;99.90;;;;;;2061501;28;20045;-73
2022/02/27 01:58:34;;;;;;;47.95;28.27;;;3.60;99.90;;;;;;2059837;28;20034;-72
2022/02/27 01:59:37;;;;;;;44.40;28.20;;;3.60;99.90;;;;;;2066209;28;20018;-75
2022/02/27 02:00:37;;;;;;;45.50;28.25;;;3.60;99.90;;;;;;2073003;28;20037;-73
2022/02/27 02:01:38;;;;;;;46.33;28.45;;;3.60;99.90;;;;;;2064826;28;20049;-72
2022/02/27 02:02:39;;;;;;;46.55;27.85;;;3.60;99.90;;;;;;2056504;28;20029;-74
2022/02/27 02:03:40;;;;;;;43.95;26.95;;;3.60;99.90;;;;;;2056651;28;20118;-74
2022/02/27 02:04:41;;;;;;;42.13;26.80;;;3.60;99.90;;;;;;2048007;28;20474;-75
2022/02/27 02:05:43;;;;;;;39.30;25.88;;;3.60;99.90;;;;;;2057099;28;20513;-75
2022/02/27 02:06:44;;;;;;;38.10;25.05;;;3.60;99.90;;;;;;2065059;28;20018;-74
2022/02/27 02:07:46;;;;;;;41.03;25.88;;;3.60;99.90;;;;;;2064219;28;20113;-74
2022/02/27 02:08:48;;;;;;;39.88;24.77;;;3.60;99.90;;;;;;2056770;28;20027;-74
2022/02/27 02:09:49;;;;;;;40.50;25.27;;;3.60;99.90;;;;;;2056551;28;20038;-74
2022/02/27 02:10:51;;;;;;;41.90;24.83;;;3.60;99.90;;;;;;2048940;28;20083;-74
2022/02/27 02:11:52;;;;;;;40.47;24.10;;;3.60;99.90;;;;;;2049599;28;20109;-76
2022/02/27 02:12:54;;;;;;;37.10;23.42;;;3.60;99.90;;;;;;2064748;28;20067;-74
2022/02/27 02:13:56;;;;;;;37.25;23.70;;;3.60;99.90;;;;;;2072485;28;20021;-74
2022/02/27 02:15:06;;;;;;;35.58;23.23;;;3.60;99.90;;;;;;2072467;28;20053;-75
2022/02/27 02:16:08;;;;;;;39.42;22.95;;;3.60;99.90;;;;;;2058170;28;20110;-75
2022/02/27 02:17:11;;;;;;;35.20;22.05;;;3.60;99.90;;;;;;2050692;28;20031;-75
2022/02/27 02:18:15;;;;;;;38.22;23.17;;;3.60;99.90;;;;;;2058128;28;20570;-75
2022/02/27 02:19:18;;;;;;;36.17;21.92;;;3.50;99.90;;;;;;2066401;28;20138;-78
2022/02/27 02:20:19;;;;;;;39.65;23.27;;;3.50;99.90;;;;;;2056605;28;20023;-73
2022/02/27 02:21:35;;;;;;;;;;;3.50;99.90;;;;;;2058288;28;20030;-74
2022/02/27 02:22:36;;;;;;;37.10;22.08;;;3.50;99.90;;;;;;2058471;28;19917;-72
2022/02/27 02:23:37;;;;;;;35.03;21.23;;;3.50;99.90;;;;;;2064616;28;20035;-73
2022/02/27 02:24:39;;;;;;;37.83;21.52;;;3.50;99.90;;;;;;2072051;28;20092;-75
2022/02/27 02:25:40;;;;;;;38.75;21.00;;;3.50;99.90;;;;;;2064403;28;20034;-73
2022/02/27 02:26:44;;;;;;;37.17;21.42;;;3.50;99.90;;;;;;2065106;28;20030;-73
2022/02/27 02:28:02;;;;;;;37.97;21.27;;;3.40;99.90;;;;;;2066176;28;20035;-72
2022/02/27 02:29:08;;;;;;;32.25;19.88;;;3.40;99.90;;;;;;2065591;28;20030;-72
2022/02/27 02:30:10;;;;;;;31.30;19.10;;;3.40;99.90;;;;;;2065461;28;20485;-72
2022/02/27 02:31:12;;;;;;;32.70;19.50;;;3.40;99.90;;;;;;2065645;28;20469;-73
2022/02/27 02:32:32;;;;;;;30.52;18.77;;;3.40;99.90;;;;;;2066193;28;20085;-73
2022/02/27 02:33:35;;;;;;;35.38;19.25;;;3.40;99.90;;;;;;2066005;28;20085;-71
2022/02/27 02:34:36;;;;;;;33.42;19.00;;;3.40;99.90;;;;;;2056789;28;20018;-74
2022/02/27 02:35:38;;;;;;;34.75;18.75;;;3.40;99.90;;;;;;2064917;28;20397;-74
2022/02/27 02:36:39;;;;;;;36.25;19.23;;;3.40;99.90;;;;;;2079769;28;20030;-74
2022/02/27 02:37:40;;;;;;;35.25;18.92;;;3.40;99.90;;;;;;2064266;28;20030;-74
2022/02/27 02:38:41;;;;;;;36.05;19.33;;;3.40;99.90;;;;;;2064669;28;20592;-74
2022/02/27 02:39:50;;;;;;;36.30;19.23;;;3.40;99.90;;;;;;2083243;28;20032;-75
2022/02/27 02:40:54;;;;;;;37.47;19.40;;;3.40;99.90;;;;;;2067618;28;20137;-72
2022/02/27 02:41:58;;;;;;;36.53;19.27;;;3.40;99.90;;;;;;2064136;28;20033;-73
2022/02/27 02:43:24;;;;;;;36.90;19.20;;;3.40;99.90;;;;;;2066531;28;20030;-73
2022/02/27 02:44:25;;;;;;;37.80;19.25;;;3.40;99.90;;;;;;2067625;28;20026;-73
2022/02/27 02:45:25;;;;;;;33.17;18.50;;;3.40;99.90;;;;;;2056203;28;20035;-72
2022/02/27 02:46:27;;;;;;;33.08;18.50;;;3.40;99.90;;;;;;2064314;28;20510;-74
2022/02/27 02:47:27;;;;;;;31.52;18.52;;;3.40;99.90;;;;;;2072682;28;20034;-75
2022/02/27 02:48:28;;;;;;;36.55;19.85;;;3.40;99.90;;;;;;2064074;28;20026;-75
2022/02/27 02:49:44;;;;;;;41.45;23.75;;;3.40;99.90;;;;;;2074619;28;20034;-74
2022/02/27 02:50:45;;;;;;;39.97;23.85;;;3.40;99.90;;;;;;2064291;28;20061;-72
2022/02/27 02:51:45;;;;;;;41.80;24.65;;;3.40;99.90;;;;;;2064353;28;20032;-73
2022/02/27 02:52:46;;;;;;;37.42;24.10;;;3.40;99.90;;;;;;2064223;28;20058;-73
2022/02/27 02:53:47;;;;;;;40.13;24.38;;;3.40;99.90;;;;;;2056038;28;20450;-74
2022/02/27 02:54:47;;;;;;;43.13;25.13;;;3.40;99.90;;;;;;2055948;28;20650;-75
2022/02/27 02:55:48;;;;;;;40.38;24.88;;;3.40;99.90;;;;;;2064541;28;20026;-74
2022/02/27 02:56:49;;;;;;;39.90;24.42;;;3.40;99.90;;;;;;2072903;28;20121;-74
2022/02/27 02:57:49;;;;;;;39.80;23.55;;;3.30;99.90;;;;;;2071934;28;20036;-71
2022/02/27 02:58:50;;;;;;;37.72;23.70;;;3.30;99.90;;;;;;2072388;28;20060;-73
2022/02/27 02:59:51;;;;;;;40.08;23.90;;;3.30;99.90;;;;;;2072234;28;20034;-74
2022/02/27 03:00:51;;;;;;;37.80;24.17;;;3.30;99.90;;;;;;2072941;28;20022;-74
2022/02/27 03:01:52;;;;;;;37.00;22.45;;;3.30;99.90;;;;;;2072969;28;20026;-74
2022/02/27 03:02:53;;;;;;;38.85;23.15;;;3.30;99.90;;;;;;2072824;28;20033;-74
2022/02/27 03:03:55;;;;;;;38.75;22.65;;;3.30;99.90;;;;;;2072996;28;20097;-74
2022/02/27 03:04:55;;;;;;;37.22;21.95;;;3.30;99.90;;;;;;2072800;28;20021;-74
2022/02/27 03:05:56;;;;;;;36.90;21.58;;;3.30;99.90;;;;;;2072655;28;20099;-74
2022/02/27 03:06:56;;;;;;;40.75;23.70;;;3.30;99.90;;;;;;2071797;28;20026;-75
2022/02/27 03:07:57;;;;;;;42.42;24.52;;;3.30;99.90;;;;;;2080181;28;20116;-74
2022/02/27 03:08:58;;;;;;;41.67;25.17;;;3.30;99.90;;;;;;2072992;28;20061;-74
2022/02/27 03:09:59;;;;;;;45.38;25.20;;;3.30;99.90;;;;;;2072193;28;20129;-75
2022/02/27 03:11:00;;;;;;;41.67;26.13;;;3.30;99.90;;;;;;2072512;28;20029;-75
2022/02/27 03:12:03;;;;;;;42.90;25.92;;;3.30;99.90;;;;;;2073378;28;20026;-75
2022/02/27 03:13:04;;;;;;;43.67;25.52;;;3.30;99.90;;;;;;2073057;28;20041;-74
2022/02/27 03:14:05;;;;;;;41.60;26.15;;;3.30;99.90;;;;;;2072739;28;20052;-75
2022/02/27 03:15:07;;;;;;;46.17;26.23;;;3.30;99.90;;;;;;2072724;28;20066;-75
2022/02/27 03:16:08;;;;;;;43.33;25.83;;;3.20;99.90;;;;;;2072771;28;20044;-73
2022/02/27 03:17:09;;;;;;;41.63;25.92;;;3.20;99.90;;;;;;2072134;28;20477;-74
2022/02/27 03:18:09;;;;;;;45.03;25.58;;;3.20;99.90;;;;;;2071754;28;20022;-73
2022/02/27 03:19:10;;;;;;;42.42;25.58;;;3.20;99.90;;;;;;2072992;28;20529;-73
2022/02/27 03:20:11;;;;;;;42.63;26.23;;;3.20;99.90;;;;;;2072303;28;20088;-75
2022/02/27 03:21:11;;;;;;;44.17;26.35;;;3.20;99.90;;;;;;2055851;28;20035;-74
2022/02/27 03:22:12;;;;;;;42.88;26.25;;;3.20;99.90;;;;;;2064095;28;20023;-75
2022/02/27 03:23:13;;;;;;;43.35;26.42;;;3.20;99.90;;;;;;2080100;28;20116;-73
2022/02/27 03:24:14;;;;;;;43.33;26.00;;;3.20;99.90;;;;;;2079561;28;20030;-74
2022/02/27 03:25:14;;;;;;;42.50;25.92;;;3.20;99.90;;;;;;2072609;28;20026;-73
2022/02/27 03:26:16;;;;;;;41.22;25.17;;;3.10;99.90;;;;;;2071769;28;20037;-73
2022/02/27 03:27:17;;;;;;;46.22;26.25;;;3.20;99.90;;;;;;2071970;28;20041;-74
2022/02/27 03:28:18;;;;;;;44.58;25.27;;;3.20;99.90;;;;;;2072102;28;20105;-74
2022/02/27 03:29:18;;;;;;;44.50;25.52;;;3.20;99.90;;;;;;2072569;28;20461;-74
2022/02/27 03:30:19;;;;;;;37.45;24.83;;;3.20;99.90;;;;;;2072532;28;20029;-73
2022/02/27 03:31:20;;;;;;;38.70;24.67;;;3.20;99.90;;;;;;2072739;28;20033;-75
2022/02/27 03:32:20;;;;;;;42.95;25.02;;;3.20;99.90;;;;;;2072659;28;20026;-75
2022/02/27 03:33:21;;;;;;;42.17;24.85;;;3.20;99.90;;;;;;2072876;28;20030;-75
2022/02/27 03:34:22;;;;;;;39.85;24.75;;;3.20;99.90;;;;;;2071656;28;20065;-75
2022/02/27 03:35:22;;;;;;;40.55;24.75;;;3.20;99.90;;;;;;2072126;28;20052;-74
2022/02/27 03:36:23;;;;;;;38.97;24.90;;;3.20;99.90;;;;;;2067651;28;20409;-75
2022/02/27 03:37:24;;;;;;;38.20;24.30;;;3.20;99.90;;;;;;2064619;28;20030;-74
2022/02/27 03:38:24;;;;;;;40.75;25.55;;;3.20;99.90;;;;;;2064081;28;20508;-74
2022/02/27 03:39:25;;;;;;;42.15;24.98;;;3.20;99.90;;;;;;2063875;28;20726;-73
2022/02/27 03:40:25;;;;;;;45.33;27.00;;;3.10;99.90;;;;;;2056224;28;20401;-74
2022/02/27 03:41:26;;;;;;;43.25;25.83;;;3.10;99.90;;;;;;2064449;28;20403;-74
2022/02/27 03:42:27;;;;;;;41.05;25.88;;;3.10;99.90;;;;;;2064317;28;20034;-74
2022/02/27 03:43:27;;;;;;;41.63;25.35;;;3.00;99.90;;;;;;2064221;28;20755;-74
2022/02/27 03:44:28;;;;;;;39.63;24.02;;;3.00;99.90;;;;;;2072262;28;20054;-73
2022/02/27 03:45:28;;;;;;;40.08;24.90;;;3.00;99.90;;;;;;2064294;28;20054;-75
2022/02/27 03:46:34;;;;;;;40.53;24.55;;;2.90;99.90;;;;;;2064286;28;20046;-73
2022/02/27 03:47:34;;;;;;;39.65;24.52;;;2.90;99.90;;;;;;2065087;28;20018;-75
2022/02/27 03:48:35;;;;;;;39.88;25.20;;;2.90;99.90;;;;;;2068721;28;20490;-74
2022/02/27 03:49:36;;;;;;;46.30;27.13;;;2.90;99.90;;;;;;2069734;28;20054;-73
2022/02/27 03:50:37;;;;;;;46.15;27.77;;;2.90;99.90;;;;;;2069342;28;20034;-74
2022/02/27 03:51:37;;;;;;;43.40;27.20;;;2.90;99.90;;;;;;2069025;28;20089;-73
2022/02/27 03:52:38;;;;;;;45.20;27.17;;;2.90;99.90;;;;;;2067392;28;20374;-74
2022/02/27 03:53:39;;;;;;;42.60;26.05;;;2.80;99.90;;;;;;2066781;28;20045;-73
2022/02/27 03:54:39;;;;;;;45.50;26.80;;;2.90;99.90;;;;;;2066432;28;20038;-74
2022/02/27 03:55:40;;;;;;;44.08;27.10;;;2.80;99.90;;;;;;2066354;28;20045;-73
2022/02/27 03:56:41;;;;;;;42.47;26.50;;;2.80;99.90;;;;;;2066174;28;20045;-74
2022/02/27 03:57:41;;;;;;;45.38;26.63;;;2.80;99.90;;;;;;2065511;28;20042;-71
2022/02/27 03:58:42;;;;;;;42.20;26.45;;;2.80;99.90;;;;;;2064759;28;20084;-72
2022/02/27 03:59:42;;;;;;;42.30;25.92;;;2.80;99.90;;;;;;2056261;28;20038;-72
2022/02/27 04:00:43;;;;;;;44.58;25.00;;;2.80;99.90;;;;;;2064458;28;20042;-72
2022/02/27 04:01:44;;;;;;;41.67;25.67;;;2.80;99.90;;;;;;2064911;28;20042;-73
2022/02/27 04:02:46;;;;;;;43.80;26.40;;;2.80;99.90;;;;;;2065294;28;20109;-73
2022/02/27 04:03:46;;;;;;;41.10;25.55;;;2.80;99.90;;;;;;2064950;28;20035;-71
2022/02/27 04:04:47;;;;;;;38.53;24.20;;;2.80;99.90;;;;;;2064486;28;20567;-75
2022/02/27 04:05:47;;;;;;;40.03;24.50;;;2.80;99.90;;;;;;2064471;28;20084;-73
2022/02/27 04:06:48;;;;;;;39.15;23.55;;;2.80;99.90;;;;;;2064402;28;20049;-73
2022/02/27 04:07:49;;;;;;;40.63;24.23;;;2.80;99.90;;;;;;2063486;28;20050;-74
2022/02/27 04:08:49;;;;;;;42.00;24.70;;;2.80;99.90;;;;;;2064024;28;20026;-73
2022/02/27 04:09:50;;;;;;;41.33;25.15;;;2.80;99.90;;;;;;2064385;28;20032;-74
2022/02/27 04:10:50;;;;;;;42.47;25.92;;;2.80;99.90;;;;;;2063993;28;20022;-74
2022/02/27 04:11:51;;;;;;;40.20;25.52;;;2.80;99.90;;;;;;2063928;28;20081;-73
2022/02/27 04:12:52;;;;;;;44.13;25.80;;;2.80;99.90;;;;;;2063885;28;20069;-74
2022/02/27 04:13:52;;;;;;;41.05;25.50;;;2.80;99.90;;;;;;2063923;28;20121;-73
2022/02/27 04:14:53;;;;;;;43.75;26.05;;;2.80;99.90;;;;;;2063619;28;20028;-71
2022/02/27 04:15:53;;;;;;;42.85;25.88;;;2.90;99.90;;;;;;2064629;28;20038;-73
2022/02/27 04:16:55;;;;;;;43.45;26.52;;;2.90;99.90;;;;;;2064685;28;20077;-74
2022/02/27 04:17:55;;;;;;;42.40;25.90;;;2.90;99.90;;;;;;2055391;28;20213;-73
2022/02/27 04:18:56;;;;;;;44.45;26.15;;;2.90;99.90;;;;;;2055955;28;20406;-74
2022/02/27 04:19:57;;;;;;;41.63;25.42;;;2.90;99.90;;;;;;2065727;28;20109;-74
2022/02/27 04:20:58;;;;;;;40.47;26.05;;;2.90;99.90;;;;;;2065612;28;20030;-74
2022/02/27 04:21:58;;;;;;;41.70;25.08;;;2.90;99.90;;;;;;2057412;28;20093;-74
2022/02/27 04:22:59;;;;;;;38.63;24.70;;;2.90;99.90;;;;;;2065544;28;20031;-75
2022/02/27 04:23:59;;;;;;;41.95;24.98;;;2.90;99.90;;;;;;2073405;28;20030;-73
2022/02/27 04:25:00;;;;;;;37.80;24.70;;;2.90;99.90;;;;;;2066381;28;20026;-74
2022/02/27 04:26:01;;;;;;;38.70;23.92;;;2.90;99.90;;;;;;2066105;28;20474;-74
2022/02/27 04:27:02;;;;;;;40.75;24.55;;;2.90;99.90;;;;;;2066094;28;20038;-74
2022/02/27 04:28:02;;;;;;;44.83;24.30;;;2.90;99.90;;;;;;2073382;28;20029;-74
2022/02/27 04:29:03;;;;;;;35.67;22.60;;;2.90;99.90;;;;;;2073591;28;20085;-74
2022/02/27 04:30:04;;;;;;;34.78;21.65;;;3.00;99.90;;;;;;2057283;28;20135;-74
2022/02/27 04:31:05;;;;;;;33.88;21.80;;;3.00;99.90;;;;;;2065452;28;20026;-74
2022/02/27 04:32:06;;;;;;;33.78;20.25;;;3.00;99.90;;;;;;2065424;28;20034;-73
2022/02/27 04:33:06;;;;;;;34.38;19.92;;;3.00;99.90;;;;;;2049722;28;20110;-74
2022/02/27 04:34:07;;;;;;;35.63;20.38;;;3.00;99.90;;;;;;2057576;28;20034;-73
2022/02/27 04:35:08;;;;;;;37.15;21.15;;;3.00;99.90;;;;;;2066312;28;20485;-75
2022/02/27 04:36:09;;;;;;;33.33;20.92;;;3.00;99.90;;;;;;2068528;28;20029;-73
2022/02/27 04:37:09;;;;;;;36.40;21.60;;;3.00;99.90;;;;;;2074737;28;20053;-73
2022/02/27 04:38:10;;;;;;;34.65;21.08;;;3.00;99.90;;;;;;2081264;28;20113;-73
2022/02/27 04:39:10;;;;;;;34.08;20.70;;;3.00;99.90;;;;;;2081620;28;20582;-73
2022/02/27 04:40:12;;;;;;;32.10;19.80;;;3.00;99.90;;;;;;2074024;28;20022;-73
2022/02/27 04:41:18;;;;;;;31.83;20.42;;;3.00;99.90;;;;;;2074237;28;20022;-73
2022/02/27 04:42:18;;;;;;;34.78;21.83;;;3.00;99.90;;;;;;2074331;28;20801;-72
2022/02/27 04:43:19;;;;;;;38.60;23.65;;;3.00;99.90;;;;;;2074040;28;20030;-73
2022/02/27 04:44:19;;;;;;;40.45;24.50;;;2.90;99.90;;;;;;2073792;28;20112;-72
2022/02/27 04:45:20;;;;;;;38.05;24.42;;;2.90;99.90;;;;;;2073971;28;20432;-73
2022/02/27 04:46:21;;;;;;;39.28;23.80;;;2.80;99.90;;;;;;2073681;28;20037;-72
2022/02/27 04:47:21;;;;;;;37.35;24.63;;;2.80;99.90;;;;;;2073999;28;20030;-73
2022/02/27 04:48:22;;;;;;;42.05;25.67;;;2.80;99.90;;;;;;2073682;28;20057;-73
2022/02/27 04:49:23;;;;;;;43.00;25.98;;;2.70;99.90;;;;;;2073397;28;20033;-73
2022/02/27 04:50:23;;;;;;;39.83;24.95;;;2.60;99.90;;;;;;2065166;28;20113;-73
2022/02/27 04:51:24;;;;;;;42.03;25.88;;;2.60;99.90;;;;;;2073624;28;20034;-72
2022/02/27 04:52:25;;;;;;;38.67;24.50;;;2.50;99.90;;;;;;2073443;28;20030;-74
2022/02/27 04:53:26;;;;;;;38.25;24.00;;;2.50;99.90;;;;;;2073337;28;20033;-72
2022/02/27 04:54:26;;;;;;;37.85;23.83;;;2.40;99.90;;;;;;2073495;28;20064;-73
2022/02/27 04:55:27;;;;;;;36.67;22.45;;;2.40;99.90;;;;;;2073527;28;20025;-71
2022/02/27 04:56:28;;;;;;;36.58;22.40;;;2.30;99.90;;;;;;2065486;28;20088;-73
2022/02/27 04:57:28;;;;;;;34.67;22.27;;;2.30;99.90;;;;;;2065380;28;20034;-73
2022/02/27 04:58:29;;;;;;;37.63;22.63;;;2.20;99.90;;;;;;2072921;28;20049;-74
2022/02/27 04:59:30;;;;;;;38.80;23.20;;;2.20;99.90;;;;;;2074054;28;20439;-73
2022/02/27 05:00:31;;;;;;;38.83;22.63;;;2.20;99.90;;;;;;2074048;28;20469;-73
2022/02/27 05:01:31;;;;;;;43.58;23.55;;;2.10;99.90;;;;;;2074425;28;20465;-73
2022/02/27 05:02:35;;;;;;;40.85;22.70;;;2.10;99.90;;;;;;2074411;28;20026;-73
2022/02/27 05:03:36;;;;;;;37.90;21.92;;;2.10;99.90;;;;;;2081552;28;20060;-73
2022/02/27 05:04:37;;;;;;;37.03;20.80;;;2.00;99.90;;;;;;2081051;28;20033;-73
2022/02/27 05:05:37;;;;;;;36.05;21.52;;;2.00;99.90;;;;;;2073771;28;20037;-73
2022/02/27 05:06:38;;;;;;;32.97;20.23;;;2.00;99.90;;;;;;2073765;28;20045;-73
2022/02/27 05:07:39;;;;;;;37.60;21.10;;;1.90;99.90;;;;;;2080768;28;20095;-73
2022/02/27 05:08:40;;;;;;;36.35;21.27;;;1.90;99.90;;;;;;2073085;28;20029;-73
2022/02/27 05:09:41;;;;;;;35.22;21.20;;;1.90;99.90;;;;;;2073197;28;20457;-73
2022/02/27 05:10:41;;;;;;;32.42;20.13;;;1.80;99.90;;;;;;2073704;28;20077;-74
2022/02/27 05:11:42;;;;;;;36.75;20.45;;;1.80;99.90;;;;;;2073862;28;20033;-74
2022/02/27 05:12:42;;;;;;;35.80;19.33;;;1.80;99.90;;;;;;2073909;28;20079;-73
2022/02/27 05:13:43;;;;;;;31.95;18.75;;;1.80;99.90;;;;;;2073766;28;20045;-73
2022/02/27 05:14:44;;;;;;;31.98;18.90;;;1.80;99.90;;;;;;2073424;28;20377;-72
2022/02/27 05:15:44;;;;;;;34.15;19.30;;;1.70;99.90;;;;;;2073752;28;20037;-72
2022/02/27 05:16:45;;;;;;;29.98;18.40;;;1.70;99.90;;;;;;2073921;28;20126;-73